createdAt,value
2023-05-17T00:00:01.518Z,3.75
2023-05-17T00:02:29.537Z,3.35
2023-05-17T00:04:57.405Z,3.95
2023-05-17T00:07:25.187Z,3.60
2023-05-17T00:09:52.864Z,4.30
2023-05-17T00:12:20.670Z,4.15
2023-05-17T00:14:48.732Z,3.85
2023-05-17T00:17:16.856Z,4.00
2023-05-17T00:19:44.582Z,4.20
2023-05-17T00:22:12.345Z,4.60
2023-05-17T00:24:40.094Z,4.30
2023-05-17T00:27:07.714Z,4.25
2023-05-17T00:29:35.507Z,4.35
2023-05-17T00:32:04.773Z,4.07
2023-05-17T00:34:32.707Z,3.80
2023-05-17T00:37:00.751Z,4.43
2023-05-17T00:39:28.386Z,4.90
2023-05-17T00:41:55.836Z,4.97
2023-05-17T00:44:23.359Z,5.53
2023-05-17T00:46:50.917Z,5.10
2023-05-17T00:49:18.462Z,5.72
2023-05-17T00:51:46.037Z,6.07
2023-05-17T00:54:13.713Z,5.13
2023-05-17T00:56:41.197Z,6.75
2023-05-17T00:59:08.675Z,5.57
2023-05-17T01:01:36.123Z,5.22
2023-05-17T01:04:03.711Z,4.60
2023-05-17T01:06:31.612Z,4.93
2023-05-17T01:09:00.177Z,4.93
2023-05-17T01:11:53.130Z,3.72
2023-05-17T01:14:39.189Z,4.15
2023-05-17T01:17:10.515Z,3.90
2023-05-17T01:19:54.767Z,3.92
2023-05-17T01:22:52.044Z,3.65
2023-05-17T01:25:24.609Z,3.60
2023-05-17T01:27:52.105Z,3.67
2023-05-17T01:30:20.047Z,4.15
2023-05-17T01:32:47.819Z,3.97
2023-05-17T01:35:15.765Z,3.85
2023-05-17T01:37:43.239Z,3.28
2023-05-17T01:40:11.040Z,3.10
2023-05-17T01:42:42.613Z,3.30
2023-05-17T01:45:27.056Z,3.45
2023-05-17T01:48:21.799Z,3.50
2023-05-17T01:50:53.046Z,2.73
2023-05-17T01:53:26.303Z,2.80
2023-05-17T01:55:55.644Z,2.95
2023-05-17T01:58:26.388Z,3.40
2023-05-17T02:00:55.905Z,3.40
2023-05-17T02:03:23.465Z,3.92
2023-05-17T02:05:53.428Z,3.22
2023-05-17T02:08:21.111Z,3.42
2023-05-17T02:10:48.664Z,3.65
2023-05-17T02:13:16.236Z,3.35
2023-05-17T02:15:44.624Z,3.90
2023-05-17T02:18:13.123Z,3.55
2023-05-17T02:20:41.366Z,3.28
2023-05-17T02:23:08.836Z,3.28
2023-05-17T02:25:37.448Z,3.17
2023-05-17T02:28:06.520Z,3.00
2023-05-17T02:30:35.990Z,2.90
2023-05-17T02:33:03.461Z,2.35
2023-05-17T02:35:31.161Z,3.03
2023-05-17T02:37:59.120Z,2.83
2023-05-17T02:40:26.587Z,3.05
2023-05-17T02:42:54.606Z,3.10
2023-05-17T02:45:21.978Z,3.10
2023-05-17T02:47:49.720Z,2.90
2023-05-17T02:50:17.527Z,2.85
2023-05-17T02:52:45.162Z,2.80
2023-05-17T02:55:12.624Z,3.40
2023-05-17T02:57:40.099Z,3.38
2023-05-17T03:00:09.034Z,3.38
2023-05-17T03:02:36.870Z,3.28
2023-05-17T03:05:08.599Z,4.28
2023-05-17T03:07:38.859Z,3.78
2023-05-17T03:10:07.512Z,3.92
2023-05-17T03:15:09.382Z,3.95
2023-05-17T03:17:37.743Z,3.70
2023-05-17T03:20:07.900Z,3.63
2023-05-17T03:22:37.071Z,4.05
2023-05-17T03:25:05.929Z,4.00
2023-05-17T03:27:34.391Z,3.63
2023-05-17T03:30:02.224Z,4.50
2023-05-17T03:32:31.678Z,4.45
2023-05-17T03:34:59.454Z,4.50
2023-05-17T03:37:28.026Z,4.28
2023-05-17T03:39:56.083Z,4.25
2023-05-17T03:42:23.789Z,4.43
2023-05-17T03:44:52.429Z,4.38
2023-05-17T03:47:24.003Z,4.50
2023-05-17T03:49:52.204Z,4.60
2023-05-17T03:52:20.371Z,4.30
2023-05-17T03:54:49.339Z,4.50
2023-05-17T03:57:17.400Z,4.80
2023-05-17T03:59:46.035Z,4.60
2023-05-17T04:02:16.849Z,4.95
2023-05-17T04:04:51.221Z,4.55
2023-05-17T04:07:19.590Z,5.05
2023-05-17T04:09:47.689Z,4.63
2023-05-17T04:12:15.341Z,4.40
2023-05-17T04:14:43.114Z,4.15
2023-05-17T04:17:10.801Z,5.20
2023-05-17T04:19:38.581Z,4.57
2023-05-17T04:22:06.220Z,4.88
2023-05-17T04:24:34.550Z,4.10
2023-05-17T04:27:04.892Z,4.43
2023-05-17T04:29:32.808Z,4.40
2023-05-17T04:32:00.677Z,4.03
2023-05-17T04:34:28.348Z,3.95
2023-05-17T04:36:57.542Z,3.80
2023-05-17T04:39:26.134Z,4.03
2023-05-17T04:41:53.772Z,5.43
2023-05-17T04:44:21.689Z,4.63
2023-05-17T04:46:53.300Z,3.97
2023-05-17T04:49:20.843Z,4.78
2023-05-17T04:51:48.548Z,5.70
2023-05-17T04:54:16.370Z,3.63
2023-05-17T04:56:44.254Z,4.18
2023-05-17T04:59:16.528Z,4.68
2023-05-17T05:01:44.186Z,5.28
2023-05-17T05:04:11.854Z,4.32
2023-05-17T05:06:43.128Z,4.00
2023-05-17T05:09:11.067Z,3.20
2023-05-17T05:11:39.794Z,3.03
2023-05-17T05:14:07.742Z,2.85
2023-05-17T05:16:36.621Z,2.80
2023-05-17T05:19:04.472Z,2.35
2023-05-17T05:21:32.994Z,3.42
2023-05-17T05:24:01.083Z,2.63
2023-05-17T05:26:28.882Z,4.57
2023-05-17T05:29:01.118Z,2.78
2023-05-17T05:31:30.878Z,3.17
2023-05-17T05:34:01.303Z,2.10
2023-05-17T05:36:29.740Z,2.47
2023-05-17T05:38:57.649Z,2.33
2023-05-17T05:41:25.428Z,2.28
2023-05-17T05:43:53.052Z,6.05
2023-05-17T05:46:21.374Z,3.63
2023-05-17T05:48:50.150Z,3.10
2023-05-17T05:51:22.724Z,2.33
2023-05-17T05:53:51.946Z,3.33
2023-05-17T05:56:20.597Z,5.63
2023-05-17T05:58:48.175Z,4.72
2023-05-17T06:01:16.482Z,4.90
2023-05-17T06:03:43.935Z,3.97
2023-05-17T06:06:11.575Z,2.70
2023-05-17T06:08:39.487Z,2.47
2023-05-17T06:11:07.313Z,1.70
2023-05-17T06:13:36.679Z,1.90
2023-05-17T06:16:06.066Z,1.90
2023-05-17T06:18:33.841Z,2.40
2023-05-17T06:21:01.462Z,1.65
2023-05-17T06:23:29.333Z,1.95
2023-05-17T06:25:56.932Z,1.25
2023-05-17T06:28:24.532Z,1.48
2023-05-17T06:30:52.178Z,1.98
2023-05-17T06:33:19.821Z,1.75
2023-05-17T06:35:55.549Z,1.77
2023-05-17T06:38:23.740Z,2.75
2023-05-17T06:40:54.782Z,1.77
2023-05-17T06:43:22.657Z,1.95
2023-05-17T06:45:50.560Z,2.00
2023-05-17T06:48:18.307Z,2.20
2023-05-17T06:50:46.069Z,1.73
2023-05-17T06:53:13.882Z,1.40
2023-05-17T06:55:43.345Z,1.40
2023-05-17T06:58:11.094Z,1.88
2023-05-17T07:00:38.982Z,1.30
2023-05-17T07:03:25.461Z,1.27
2023-05-17T07:05:53.068Z,1.15
2023-05-17T07:08:21.168Z,1.23
2023-05-17T07:10:52.184Z,1.05
2023-05-17T07:13:19.988Z,1.50
2023-05-17T07:15:50.435Z,1.23
2023-05-17T07:18:18.256Z,1.63
2023-05-17T07:20:46.549Z,1.55
2023-05-17T07:23:14.160Z,1.40
2023-05-17T07:25:43.220Z,1.40
2023-05-17T07:28:11.289Z,1.25
2023-05-17T07:30:38.810Z,1.33
2023-05-17T07:33:09.762Z,1.20
2023-05-17T07:35:37.884Z,1.35
2023-05-17T07:38:05.632Z,1.13
2023-05-17T07:40:33.410Z,1.00
2023-05-17T07:43:01.157Z,1.35
2023-05-17T07:45:28.994Z,1.10
2023-05-17T07:47:57.219Z,1.00
2023-05-17T07:50:24.990Z,1.30
2023-05-17T07:52:52.774Z,1.35
2023-05-17T07:55:21.446Z,1.40
2023-05-17T07:57:48.850Z,1.40
2023-05-17T08:00:19.628Z,1.08
2023-05-17T08:02:47.343Z,1.60
2023-05-17T08:05:14.853Z,1.40
2023-05-17T08:07:42.538Z,1.10
2023-05-17T08:10:10.756Z,1.30
2023-05-17T08:12:38.662Z,1.70
2023-05-17T08:15:06.688Z,1.02
2023-05-17T08:17:34.452Z,1.60
2023-05-17T08:20:02.186Z,1.38
2023-05-17T08:22:30.029Z,1.50
2023-05-17T08:24:57.721Z,1.60
2023-05-17T08:27:26.993Z,1.05
2023-05-17T08:29:58.441Z,1.00
2023-05-17T08:32:26.485Z,1.25
2023-05-17T08:34:54.657Z,1.67
2023-05-17T08:37:22.250Z,1.63
2023-05-17T08:39:51.521Z,2.10
2023-05-17T08:42:22.517Z,1.73
2023-05-17T08:44:50.552Z,1.55
2023-05-17T08:47:29.835Z,1.40
2023-05-17T08:50:00.509Z,1.60
2023-05-17T08:52:34.707Z,2.05
2023-05-17T08:55:05.331Z,2.50
2023-05-17T08:57:33.884Z,1.80
2023-05-17T09:00:01.771Z,2.40
2023-05-17T09:02:30.210Z,1.20
2023-05-17T09:04:58.175Z,1.30
2023-05-17T09:07:25.888Z,1.00
2023-05-17T09:09:54.211Z,1.05
2023-05-17T09:12:23.531Z,1.33
2023-05-17T09:14:52.987Z,1.58
2023-05-17T09:17:21.575Z,1.40
2023-05-17T09:19:50.450Z,1.55
2023-05-17T09:22:18.387Z,1.67
2023-05-17T09:24:46.908Z,1.30
2023-05-17T09:27:18.263Z,1.10
2023-05-17T09:29:46.433Z,1.35
2023-05-17T09:32:17.988Z,1.67
2023-05-17T09:34:47.075Z,1.23
2023-05-17T09:37:16.088Z,1.67
2023-05-17T09:39:47.067Z,1.83
2023-05-17T09:42:15.252Z,1.30
2023-05-17T09:44:50.088Z,1.10
2023-05-17T09:47:24.934Z,1.35
2023-05-17T09:49:52.718Z,1.08
2023-05-17T09:52:20.971Z,1.00
2023-05-17T09:54:55.394Z,1.08
2023-05-17T09:59:50.843Z,0.90
2023-05-17T10:02:23.446Z,1.02
2023-05-17T10:04:51.633Z,1.20
2023-05-17T10:07:19.910Z,0.80
2023-05-17T10:09:48.908Z,0.90
2023-05-17T10:12:23.717Z,1.40
2023-05-17T10:14:52.969Z,0.90
2023-05-17T10:17:20.810Z,1.15
2023-05-17T10:19:48.851Z,1.25
2023-05-17T10:22:23.283Z,1.10
2023-05-17T10:24:51.876Z,1.10
2023-05-17T10:27:19.962Z,1.20
2023-05-17T10:29:50.252Z,1.10
2023-05-17T10:32:19.598Z,1.38
2023-05-17T10:35:01.525Z,1.10
2023-05-17T10:37:34.354Z,1.20
2023-05-17T10:40:02.113Z,1.38
2023-05-17T10:42:29.770Z,1.67
2023-05-17T10:44:57.404Z,1.30
2023-05-17T10:47:32.134Z,1.10
2023-05-17T10:49:59.724Z,1.25
2023-05-17T10:52:27.564Z,1.30
2023-05-17T10:54:56.518Z,1.20
2023-05-17T10:57:49.849Z,1.50
2023-05-17T11:00:22.025Z,1.63
2023-05-17T11:02:50.894Z,1.48
2023-05-17T11:05:26.162Z,1.58
2023-05-17T11:08:17.361Z,1.50
2023-05-17T11:11:07.676Z,1.40
2023-05-17T11:13:47.583Z,1.45
2023-05-17T11:16:18.094Z,1.23
2023-05-17T11:18:53.317Z,1.30
2023-05-17T11:21:22.552Z,1.65
2023-05-17T11:23:55.464Z,1.83
2023-05-17T11:26:33.192Z,1.40
2023-05-17T11:29:08.290Z,1.48
2023-05-17T11:31:36.822Z,1.40
2023-05-17T11:34:04.677Z,1.40
2023-05-17T11:36:32.448Z,1.25
2023-05-17T11:39:10.803Z,1.10
2023-05-17T11:41:41.668Z,1.40
2023-05-17T11:44:10.186Z,1.20
2023-05-17T11:46:38.018Z,1.40
2023-05-17T11:49:12.119Z,1.30
2023-05-17T11:51:43.283Z,1.40
2023-05-17T11:54:10.893Z,1.10
2023-05-17T11:56:43.675Z,1.50
2023-05-17T11:59:11.790Z,1.40
2023-05-17T12:01:43.779Z,1.27
2023-05-17T12:04:11.490Z,1.13
2023-05-17T12:06:39.636Z,1.45
2023-05-17T12:09:11.379Z,1.40
2023-05-17T12:11:39.659Z,1.40
2023-05-17T12:14:07.393Z,1.70
2023-05-17T12:16:36.363Z,1.20
2023-05-17T12:19:04.197Z,1.23
2023-05-17T12:21:31.961Z,1.42
2023-05-17T12:23:59.582Z,1.20
2023-05-17T12:26:27.171Z,1.17
2023-05-17T12:28:56.554Z,1.50
2023-05-17T12:31:38.639Z,1.63
2023-05-17T12:34:06.756Z,1.52
2023-05-17T12:36:34.966Z,1.17
2023-05-17T12:39:02.658Z,1.58
2023-05-17T12:41:30.329Z,1.13
2023-05-17T12:44:13.760Z,1.45
2023-05-17T12:46:42.987Z,1.38
2023-05-17T12:49:13.931Z,1.70
2023-05-17T12:51:43.441Z,1.38
2023-05-17T12:54:31.329Z,1.30
2023-05-17T12:56:59.147Z,1.52
2023-05-17T12:59:29.183Z,1.63
2023-05-17T13:01:57.641Z,1.80
2023-05-17T13:04:32.831Z,1.55
2023-05-17T13:07:02.443Z,1.42
2023-05-17T13:09:31.138Z,1.70
2023-05-17T13:11:59.622Z,1.48
2023-05-17T13:14:44.389Z,1.92
2023-05-17T13:17:18.499Z,1.65
2023-05-17T13:19:46.300Z,2.13
2023-05-17T13:22:15.522Z,1.90
2023-05-17T13:24:43.568Z,2.25
2023-05-17T13:27:11.298Z,1.70
2023-05-17T13:29:41.805Z,1.77
2023-05-17T13:32:11.733Z,2.28
2023-05-17T13:34:39.541Z,1.70
2023-05-17T13:37:10.303Z,1.92
2023-05-17T13:39:39.989Z,1.80
2023-05-17T13:42:07.974Z,1.80
2023-05-17T13:44:36.409Z,1.95
2023-05-17T13:47:04.288Z,2.03
2023-05-17T13:49:32.887Z,1.95
2023-05-17T13:52:00.905Z,1.80
2023-05-17T13:54:28.541Z,1.63
2023-05-17T13:56:57.624Z,1.60
2023-05-17T13:59:25.493Z,1.45
2023-05-17T14:01:53.845Z,1.50
2023-05-17T14:04:21.598Z,1.50
2023-05-17T14:06:50.286Z,1.92
2023-05-17T14:09:19.078Z,1.90
2023-05-17T14:11:46.684Z,1.80
2023-05-17T14:14:14.239Z,1.45
2023-05-17T14:16:41.929Z,1.90
2023-05-17T14:19:09.732Z,2.13
2023-05-17T14:21:37.826Z,1.70
2023-05-17T14:24:05.641Z,2.30
2023-05-17T14:26:33.240Z,2.17
2023-05-17T14:29:01.077Z,1.90
2023-05-17T14:31:30.301Z,1.90
2023-05-17T14:33:58.982Z,2.15
2023-05-17T14:36:26.639Z,2.00
2023-05-17T14:38:54.325Z,2.08
2023-05-17T14:41:22.652Z,1.95
2023-05-17T14:43:50.219Z,1.60
2023-05-17T14:46:19.932Z,1.88
2023-05-17T14:48:47.594Z,2.20
2023-05-17T14:51:15.137Z,2.13
2023-05-17T14:53:43.128Z,2.00
2023-05-17T14:56:12.159Z,2.33
2023-05-17T14:58:40.521Z,1.70
2023-05-17T15:01:08.390Z,1.90
2023-05-17T15:03:36.178Z,1.77
2023-05-17T15:06:07.084Z,1.85
2023-05-17T15:08:36.070Z,2.10
2023-05-17T15:11:03.613Z,2.38
2023-05-17T15:13:31.574Z,3.78
2023-05-17T15:15:59.484Z,2.47
2023-05-17T15:18:27.128Z,1.67
2023-05-17T15:20:54.593Z,1.88
2023-05-17T15:23:22.128Z,1.90
2023-05-17T15:25:49.901Z,1.85
2023-05-17T15:28:20.000Z,1.42
2023-05-17T15:30:47.898Z,1.00
2023-05-17T15:33:15.931Z,1.55
2023-05-17T15:35:44.619Z,1.50
2023-05-17T15:38:12.210Z,1.80
2023-05-17T15:40:39.850Z,1.70
2023-05-17T15:43:07.358Z,1.92
2023-05-17T15:45:35.015Z,1.77
2023-05-17T15:48:02.677Z,1.85
2023-05-17T15:50:31.132Z,1.88
2023-05-17T15:53:00.163Z,1.75
2023-05-17T15:55:28.910Z,1.90
2023-05-17T15:57:56.689Z,1.65
2023-05-17T16:00:24.294Z,1.83
2023-05-17T16:02:52.074Z,1.63
2023-05-17T16:05:19.760Z,1.90
2023-05-17T16:07:48.175Z,1.63
2023-05-17T16:10:16.173Z,1.80
2023-05-17T16:12:44.086Z,1.63
2023-05-17T16:15:11.742Z,1.73
2023-05-17T16:17:39.569Z,2.25
2023-05-17T16:20:08.164Z,2.35
2023-05-17T16:22:36.069Z,1.98
2023-05-17T16:25:04.959Z,2.17
2023-05-17T16:27:32.670Z,2.00
2023-05-17T16:30:00.220Z,1.90
2023-05-17T16:32:27.912Z,2.05
2023-05-17T16:34:55.585Z,1.80
2023-05-17T16:37:23.176Z,1.90
2023-05-17T16:39:50.746Z,1.90
2023-05-17T16:42:18.833Z,2.80
2023-05-17T16:44:46.418Z,2.28
2023-05-17T16:47:14.079Z,3.17
2023-05-17T16:49:42.550Z,2.55
2023-05-17T16:52:10.327Z,2.30
2023-05-17T16:54:38.763Z,2.08
2023-05-17T16:57:08.450Z,1.92
2023-05-17T16:59:36.289Z,1.90
2023-05-17T17:02:04.479Z,1.98
2023-05-17T17:04:32.238Z,2.42
2023-05-17T17:07:00.313Z,2.33
2023-05-17T17:09:27.952Z,1.65
2023-05-17T17:11:55.582Z,1.90
2023-05-17T17:14:24.349Z,1.80
2023-05-17T17:16:52.006Z,1.60
2023-05-17T17:19:19.871Z,2.20
2023-05-17T17:21:47.620Z,2.10
2023-05-17T17:24:15.407Z,2.78
2023-05-17T17:26:43.106Z,2.30
2023-05-17T17:29:10.665Z,2.15
2023-05-17T17:31:38.307Z,2.13
2023-05-17T17:34:06.046Z,2.42
2023-05-17T17:36:33.647Z,3.72
2023-05-17T17:39:01.223Z,2.17
2023-05-17T17:41:29.022Z,2.50
2023-05-17T17:43:58.674Z,2.22
2023-05-17T17:46:26.413Z,3.17
2023-05-17T17:48:56.599Z,2.20
2023-05-17T17:51:24.469Z,2.42
2023-05-17T17:53:53.820Z,2.58
2023-05-17T17:56:21.604Z,2.08
2023-05-17T17:58:49.166Z,2.00
2023-05-17T18:01:16.788Z,2.28
2023-05-17T18:03:44.387Z,2.33
2023-05-17T18:06:12.074Z,2.30
2023-05-17T18:08:39.888Z,2.25
2023-05-17T18:11:07.515Z,2.60
2023-05-17T18:13:35.233Z,3.70
2023-05-17T18:16:02.927Z,3.65
2023-05-17T18:18:30.637Z,2.67
2023-05-17T18:20:58.660Z,3.83
2023-05-17T18:23:26.361Z,3.40
2023-05-17T18:25:53.997Z,3.60
2023-05-17T18:28:30.095Z,3.90
2023-05-17T18:31:05.947Z,3.20
2023-05-17T18:33:34.976Z,3.10
2023-05-17T18:36:02.612Z,3.30
2023-05-17T18:38:30.422Z,3.33
2023-05-17T18:40:57.971Z,3.22
2023-05-17T18:43:25.731Z,2.53
2023-05-17T18:45:53.329Z,3.38
2023-05-17T18:48:22.311Z,2.70
2023-05-17T18:50:49.883Z,3.28
2023-05-17T18:53:18.084Z,2.78
2023-05-17T18:55:45.882Z,2.85
2023-05-17T18:58:14.093Z,3.35
2023-05-17T19:00:42.240Z,3.30
2023-05-17T19:03:09.827Z,2.95
2023-05-17T19:05:38.013Z,3.20
2023-05-17T19:08:05.845Z,2.90
2023-05-17T19:10:33.459Z,2.88
2023-05-17T19:13:01.264Z,2.67
2023-05-17T19:15:29.162Z,2.97
2023-05-17T19:17:56.936Z,3.08
2023-05-17T19:20:24.765Z,3.10
2023-05-17T19:22:52.384Z,2.85
2023-05-17T19:25:21.800Z,2.50
2023-05-17T19:27:49.373Z,2.80
2023-05-17T19:30:17.191Z,3.53
2023-05-17T19:32:45.488Z,3.30
2023-05-17T19:35:13.056Z,3.20
2023-05-17T19:37:40.706Z,3.20
2023-05-17T19:40:09.014Z,3.22
2023-05-17T19:42:36.763Z,3.60
2023-05-17T19:45:04.644Z,3.22
2023-05-17T19:47:32.815Z,3.20
2023-05-17T19:50:01.477Z,3.72
2023-05-17T19:52:29.225Z,3.70
2023-05-17T19:54:56.916Z,3.33
2023-05-17T19:57:24.743Z,3.30
2023-05-17T19:59:53.006Z,3.33
2023-05-17T20:02:21.078Z,3.22
2023-05-17T20:04:48.782Z,3.20
2023-05-17T20:07:17.502Z,3.67
2023-05-17T20:09:45.063Z,3.72
2023-05-17T20:12:13.145Z,3.83
2023-05-17T20:14:40.748Z,3.88
2023-05-17T20:17:08.385Z,3.60
2023-05-17T20:19:38.318Z,3.33
2023-05-17T20:22:06.306Z,3.63
2023-05-17T20:24:35.033Z,4.07
2023-05-17T20:27:02.782Z,3.55
2023-05-17T20:29:31.033Z,4.47
2023-05-17T20:31:58.868Z,4.25
2023-05-17T20:34:29.222Z,3.72
2023-05-17T20:36:56.905Z,4.75
2023-05-17T20:39:28.047Z,4.35
2023-05-17T20:41:56.961Z,4.13
2023-05-17T20:44:26.007Z,4.22
2023-05-17T20:46:54.566Z,4.40
2023-05-17T20:49:22.103Z,4.15
2023-05-17T20:51:49.671Z,4.45
2023-05-17T20:54:17.095Z,4.57
2023-05-17T20:56:44.651Z,4.57
2023-05-17T20:59:12.004Z,4.32
2023-05-17T21:01:39.841Z,5.05
2023-05-17T21:04:07.283Z,5.00
2023-05-17T21:06:36.426Z,4.88
2023-05-17T21:09:04.009Z,5.38
2023-05-17T21:11:31.468Z,4.75
2023-05-17T21:13:59.903Z,4.85
2023-05-17T21:16:27.462Z,5.32
2023-05-17T21:18:55.260Z,4.63
2023-05-17T21:21:22.725Z,5.75
2023-05-17T21:23:51.201Z,5.28
2023-05-17T21:26:18.723Z,5.45
2023-05-17T21:28:46.218Z,5.13
2023-05-17T21:31:13.787Z,6.25
2023-05-17T21:33:41.270Z,6.03
2023-05-17T21:36:08.710Z,5.80
2023-05-17T21:38:36.142Z,5.88
2023-05-17T21:41:03.570Z,6.47
2023-05-17T21:43:31.568Z,5.72
2023-05-17T21:45:58.972Z,6.45
2023-05-17T21:48:26.466Z,6.07
2023-05-17T21:50:53.916Z,6.93
2023-05-17T21:53:21.618Z,7.07
2023-05-17T21:56:01.291Z,7.00
2023-05-17T21:58:31.458Z,7.32
2023-05-17T22:00:58.882Z,7.45
2023-05-17T22:03:26.370Z,7.40
2023-05-17T22:05:53.830Z,7.30
2023-05-17T22:08:21.333Z,7.82
2023-05-17T22:10:50.246Z,7.53
2023-05-17T22:13:18.489Z,8.65
2023-05-17T22:15:46.153Z,9.35
2023-05-17T22:18:13.911Z,9.13
2023-05-17T22:20:41.439Z,8.77
2023-05-17T22:23:08.931Z,8.90
2023-05-17T22:25:36.486Z,8.85
2023-05-17T22:28:03.986Z,9.50
2023-05-17T22:30:31.721Z,9.13
2023-05-17T22:33:01.046Z,8.90
2023-05-17T22:35:29.041Z,9.30
2023-05-17T22:37:56.517Z,9.07
2023-05-17T22:40:24.015Z,9.52
2023-05-17T22:42:52.042Z,9.75
2023-05-17T22:45:19.545Z,9.13
2023-05-17T22:47:47.049Z,9.00
2023-05-17T22:50:15.935Z,9.05
2023-05-17T22:52:43.582Z,8.57
2023-05-17T22:55:11.329Z,9.57
2023-05-17T22:57:38.878Z,8.30
2023-05-17T23:00:09.134Z,8.88
2023-05-17T23:02:36.903Z,9.55
2023-05-17T23:05:04.779Z,8.88
2023-05-17T23:07:37.166Z,9.50
2023-05-17T23:10:08.905Z,9.27
2023-05-17T23:12:37.901Z,8.43
2023-05-17T23:15:06.226Z,8.63
2023-05-17T23:17:33.880Z,8.18
2023-05-17T23:20:10.492Z,8.75
2023-05-17T23:22:38.989Z,7.93
2023-05-17T23:25:06.793Z,8.35
2023-05-17T23:27:35.395Z,8.02
2023-05-17T23:30:03.101Z,7.78
2023-05-17T23:32:34.983Z,7.43
2023-05-17T23:35:05.880Z,7.32
2023-05-17T23:37:33.746Z,7.78
2023-05-17T23:40:01.866Z,7.35
2023-05-17T23:42:29.606Z,6.85
2023-05-17T23:44:57.908Z,8.18
2023-05-17T23:47:25.852Z,7.97
2023-05-17T23:49:53.304Z,6.68
2023-05-17T23:52:20.995Z,7.65
2023-05-17T23:54:48.561Z,7.13
2023-05-17T23:57:16.411Z,7.47
2023-05-17T23:59:44.030Z,7.65
